»·PEaware :: N7690J KMCC-KSQL

N7690J :: KMCC-KSQL

FLIGHT INFORMATION

Flight Status: Arrived
Operator: Privately registered:
United States
More flights under this callsign
Pilot: Doug H. (19585)
Aircraft: PIPER PA-28R-201 ARROW
(P28R)
More flights by this aircraft type
Origin: KMCC McClellan
United States
Destination: KSQL San Carlos
United States
More flights between these airports :: More routes between these airports
Route: +
File this flight plan on PilotEdge
Remarks:
Altitude:
(Current/Filed)
0ft
Speed:
(Current/Filed)
0kts
Departed: 26-Jun-20 01:18 PM
Arrived: 26-Jun-20 02:10 PM
Distance/Time
Traveled:
80nm/0:52
Distance/Time
To Go:
Arrived

Flight Plot

Page will automatically refresh every two minutes.

Flight plan parsing failed; only flown route is shown


Map Options




Map Legend


Flown Route
Filed Route
Departure Airport
Arrival Airport
Navaid (VOR, NDB)
Fix

Horizontal Profiles

Position Reports

Time Latitude Longitude Heading Altitude Ground
Speed
26-Jun-20 13:16 38.614147 -121.425565 213 1987ft 104kts
26-Jun-20 13:17 38.590168 -121.446014 212 2953ft 104kts
26-Jun-20 13:18 38.565029 -121.464559 207 3918ft 105kts
26-Jun-20 13:19 38.539270 -121.482743 205 4869ft 106kts
26-Jun-20 13:20 38.512356 -121.499350 209 5807ft 108kts
26-Jun-20 13:21 38.485946 -121.519236 212 6556ft 121kts
26-Jun-20 13:22 38.455661 -121.542255 212 6615ft 129kts
26-Jun-20 13:23 38.420798 -121.548231 175 6614ft 130kts
26-Jun-20 13:24 38.389126 -121.544346 174 6614ft 130kts
26-Jun-20 13:25 38.353231 -121.539609 174 6650ft 128kts
26-Jun-20 13:26 38.318666 -121.535018 174 6650ft 130kts
26-Jun-20 13:27 38.282542 -121.530210 174 6650ft 131kts
26-Jun-20 13:28 38.246320 -121.525363 174 6650ft 131kts
26-Jun-20 13:29 38.215617 -121.521259 174 6650ft 131kts
26-Jun-20 13:30 38.179376 -121.516466 174 6650ft 131kts
26-Jun-20 13:31 38.143080 -121.511708 174 6650ft 131kts
26-Jun-20 13:32 38.109241 -121.507195 174 6650ft 131kts
26-Jun-20 13:33 38.072946 -121.502337 174 6641ft 131kts
26-Jun-20 13:34 38.036731 -121.497457 174 6641ft 131kts
26-Jun-20 13:35 38.000392 -121.492658 174 6641ft 131kts
26-Jun-20 13:36 37.964198 -121.487999 174 6641ft 131kts
26-Jun-20 13:37 37.927950 -121.483202 174 6641ft 131kts
26-Jun-20 13:38 37.891753 -121.478385 174 6641ft 131kts
26-Jun-20 13:39 37.855490 -121.473556 174 6641ft 131kts
26-Jun-20 13:40 37.819262 -121.468736 174 6641ft 131kts
26-Jun-20 13:41 37.783908 -121.464038 174 6641ft 131kts
26-Jun-20 13:43 37.748216 -121.466477 191 6356ft 131kts
26-Jun-20 13:44 37.712376 -121.475781 191 5635ft 132kts
26-Jun-20 13:45 37.676607 -121.485042 191 5619ft 130kts
26-Jun-20 13:46 37.641254 -121.494234 191 5619ft 130kts
26-Jun-20 13:47 37.605743 -121.503428 191 5619ft 130kts
26-Jun-20 13:48 37.570385 -121.512554 191 5619ft 130kts
26-Jun-20 13:49 37.534917 -121.521695 191 5619ft 130kts
26-Jun-20 13:50 37.499558 -121.530798 191 5619ft 130kts
26-Jun-20 13:51 37.464104 -121.539917 191 5619ft 130kts
26-Jun-20 13:52 37.428717 -121.549009 191 5619ft 130kts
26-Jun-20 13:53 37.398313 -121.566656 262 5575ft 127kts
26-Jun-20 13:54 37.401903 -121.611934 280 5041ft 132kts
26-Jun-20 13:55 37.409001 -121.656940 281 4647ft 129kts
26-Jun-20 13:56 37.416521 -121.700838 282 4644ft 128kts
26-Jun-20 13:56 37.422977 -121.737392 282 4644ft 128kts
26-Jun-20 13:58 37.432042 -121.789073 282 4528ft 130kts
26-Jun-20 13:59 37.439756 -121.833231 282 4525ft 128kts
26-Jun-20 13:59 37.446121 -121.869735 282 4526ft 128kts
26-Jun-20 14:01 37.454929 -121.920312 282 3963ft 126kts
26-Jun-20 14:01 37.461164 -121.956235 282 3506ft 126kts
26-Jun-20 14:05 37.490160 -122.124189 282 2335ft 123kts
26-Jun-20 14:06 37.497390 -122.166303 282 1623ft 122kts
26-Jun-20 14:07 37.494892 -122.208163 241 1123ft 124kts
26-Jun-20 14:08 37.501893 -122.238166 315 300ft 79kts
26-Jun-20 14:09 37.512230 -122.250562 226 7ft 9kts

Navigation Log

Ident Type
Flight plan parsing failed, navigation log unavailable